createdAt,value
2024-05-09T00:00:53.404Z,101338.91
2024-05-09T00:03:21.733Z,101335.53
2024-05-09T00:05:49.978Z,101328.59
2024-05-09T00:08:18.351Z,101334.69
2024-05-09T00:10:49.836Z,101339.91
2024-05-09T00:13:18.171Z,101333.00
2024-05-09T00:15:46.336Z,101334.69
2024-05-09T00:18:14.662Z,101329.44
2024-05-09T00:20:43.319Z,101331.03
2024-05-09T00:23:12.411Z,101326.59
2024-05-09T00:25:42.661Z,101332.59
2024-05-09T00:28:13.224Z,101332.66
2024-05-09T00:30:41.468Z,101337.88
2024-05-09T00:33:11.034Z,101336.97
2024-05-09T00:35:40.059Z,101337.00
2024-05-09T00:38:08.432Z,101334.44
2024-05-09T00:40:42.174Z,101326.50
2024-05-09T00:43:12.290Z,101321.25
2024-05-09T00:45:41.052Z,101320.38
2024-05-09T00:48:10.652Z,101322.88
2024-05-09T00:50:42.406Z,101331.59
2024-05-09T00:53:15.242Z,101329.91
2024-05-09T00:55:43.390Z,101327.22
2024-05-09T00:58:11.410Z,101328.09
2024-05-09T01:00:41.101Z,101327.22
2024-05-09T01:03:12.528Z,101327.13
2024-05-09T01:05:43.306Z,101323.63
2024-05-09T01:08:12.257Z,101327.84
2024-05-09T01:10:43.881Z,101331.41
2024-05-09T01:13:14.107Z,101326.22
2024-05-09T01:15:42.976Z,101332.28
2024-05-09T01:18:14.358Z,101331.38
2024-05-09T01:20:45.193Z,101330.50
2024-05-09T01:23:15.718Z,101341.88
2024-05-09T01:25:45.628Z,101338.41
2024-05-09T01:28:13.774Z,101344.59
2024-05-09T01:30:41.942Z,101342.94
2024-05-09T01:33:11.662Z,101340.38
2024-05-09T01:35:42.310Z,101337.88
2024-05-09T01:38:14.398Z,101346.59
2024-05-09T01:40:42.646Z,101345.72
2024-05-09T01:43:12.033Z,101340.59
2024-05-09T01:45:41.019Z,101346.72
2024-05-09T01:48:09.631Z,101354.59
2024-05-09T01:50:41.611Z,101349.47
2024-05-09T01:53:11.838Z,101346.84
2024-05-09T01:55:40.566Z,101350.31
2024-05-09T01:58:09.885Z,101358.13
2024-05-09T02:00:42.568Z,101362.50
2024-05-09T02:03:15.400Z,101350.31
2024-05-09T02:05:46.157Z,101359.03
2024-05-09T02:08:16.741Z,101354.59
2024-05-09T02:10:45.553Z,101352.88
2024-05-09T02:13:13.504Z,101350.09
2024-05-09T02:15:41.506Z,101349.31
2024-05-09T02:18:09.223Z,101344.19
2024-05-09T02:20:39.137Z,101345.84
2024-05-09T02:23:07.522Z,101342.28
2024-05-09T02:25:36.393Z,101339.47
2024-05-09T02:28:04.982Z,101340.25
2024-05-09T02:30:39.587Z,101339.31
2024-05-09T02:33:12.823Z,101339.31
2024-05-09T02:35:41.864Z,101337.59
2024-05-09T02:38:13.598Z,101334.16
2024-05-09T02:40:41.997Z,101328.91
2024-05-09T02:43:11.062Z,101327.13
2024-05-09T02:46:02.543Z,101337.50
2024-05-09T02:48:33.897Z,101335.78
2024-05-09T02:51:02.757Z,101335.78
2024-05-09T02:53:31.237Z,101340.94
2024-05-09T02:55:59.702Z,101340.81
2024-05-09T02:58:27.805Z,101337.22
2024-05-09T03:00:56.251Z,101340.63
2024-05-09T03:03:24.495Z,101338.88
2024-05-09T03:05:53.521Z,101331.13
2024-05-09T03:08:21.411Z,101337.28
2024-05-09T03:10:49.525Z,101337.31
2024-05-09T03:13:17.377Z,101333.88
2024-05-09T03:15:46.147Z,101334.78
2024-05-09T03:18:14.242Z,101333.97
2024-05-09T03:20:44.427Z,101337.44
2024-05-09T03:23:12.401Z,101334.81
2024-05-09T03:25:40.938Z,101335.72
2024-05-09T03:28:08.916Z,101335.69
2024-05-09T03:30:41.871Z,101335.63
2024-05-09T03:33:19.261Z,101334.69
2024-05-09T03:35:49.526Z,101336.25
2024-05-09T03:38:17.734Z,101343.88
2024-05-09T03:41:09.188Z,101340.41
2024-05-09T03:43:38.624Z,101344.81
2024-05-09T03:46:06.640Z,101349.13
2024-05-09T03:48:37.783Z,101347.47
2024-05-09T03:51:06.795Z,101344.91
2024-05-09T03:53:34.773Z,101344.97
2024-05-09T03:56:03.996Z,101346.72
2024-05-09T03:58:32.570Z,101343.31
2024-05-09T04:01:00.907Z,101347.56
2024-05-09T04:03:29.101Z,101338.91
2024-05-09T04:05:56.842Z,101349.16
2024-05-09T04:08:24.810Z,101350.00
2024-05-09T04:10:52.858Z,101352.59
2024-05-09T04:13:23.464Z,101346.56
2024-05-09T04:15:51.594Z,101352.69
2024-05-09T04:18:19.760Z,101354.44
2024-05-09T04:20:47.552Z,101356.09
2024-05-09T04:23:15.779Z,101355.25
2024-05-09T04:25:44.747Z,101357.06
2024-05-09T04:28:13.070Z,101358.00
2024-05-09T04:30:42.221Z,101364.06
2024-05-09T04:33:12.466Z,101357.19
2024-05-09T04:35:43.443Z,101360.75
2024-05-09T04:38:12.242Z,101365.19
2024-05-09T04:40:40.670Z,101366.09
2024-05-09T04:43:14.548Z,101367.84
2024-05-09T04:45:42.891Z,101376.59
2024-05-09T04:48:11.392Z,101380.09
2024-05-09T04:50:40.160Z,101375.88
2024-05-09T04:53:09.912Z,101377.63
2024-05-09T04:55:39.610Z,101382.94
2024-05-09T04:58:11.067Z,101381.97
2024-05-09T05:00:40.772Z,101386.34
2024-05-09T05:03:14.082Z,101385.56
2024-05-09T05:05:45.062Z,101393.50
2024-05-09T05:13:41.687Z,101390.38
2024-05-09T05:16:10.771Z,101397.28
2024-05-09T05:21:15.660Z,101395.78
2024-05-09T05:23:44.507Z,101395.66
2024-05-09T05:26:13.379Z,101391.44
2024-05-09T05:28:41.854Z,101401.06
2024-05-09T05:33:45.806Z,101398.72
2024-05-09T05:36:14.628Z,101398.78
2024-05-09T05:41:24.580Z,101403.31
2024-05-09T05:43:52.786Z,101404.25
2024-05-09T05:49:16.960Z,101407.16
2024-05-09T05:54:26.414Z,101401.19
2024-05-09T05:59:29.548Z,101405.69
2024-05-09T06:10:26.288Z,101418.03
2024-05-09T06:27:22.601Z,101426.31
2024-05-09T06:29:50.914Z,101431.59
2024-05-09T06:32:19.296Z,101433.41
2024-05-09T06:34:47.563Z,101431.69
2024-05-09T06:37:15.860Z,101426.50
2024-05-09T06:39:44.028Z,101430.88
2024-05-09T06:42:12.002Z,101427.44
2024-05-09T06:44:40.328Z,101437.03
2024-05-09T06:47:08.602Z,101447.50
2024-05-09T06:49:38.571Z,101439.75
2024-05-09T06:52:07.600Z,101436.28
2024-05-09T06:54:35.316Z,101437.22
2024-05-09T06:59:37.536Z,101437.28
2024-05-09T07:02:05.970Z,101436.44
2024-05-09T07:04:34.649Z,101439.94
2024-05-09T07:07:04.882Z,101441.72
2024-05-09T07:09:33.067Z,101439.97
2024-05-09T07:12:01.483Z,101442.59
2024-05-09T07:14:30.518Z,101439.97
2024-05-09T07:16:58.740Z,101441.75
2024-05-09T07:19:27.132Z,101447.81
2024-05-09T07:21:55.504Z,101448.69
2024-05-09T07:24:24.337Z,101447.78
2024-05-09T07:26:52.504Z,101453.88
2024-05-09T07:29:21.603Z,101449.53
2024-05-09T07:31:50.572Z,101443.41
2024-05-09T07:34:19.078Z,101440.78
2024-05-09T07:36:47.154Z,101439.78
2024-05-09T07:39:15.247Z,101447.56
2024-05-09T07:41:43.510Z,101444.88
2024-05-09T07:44:11.713Z,101437.75
2024-05-09T07:47:47.702Z,101447.25
2024-05-09T07:53:22.113Z,101448.72
2024-05-09T07:54:48.119Z,101442.44
2024-05-09T07:57:16.629Z,101447.63
2024-05-09T07:59:44.878Z,101449.41
2024-05-09T08:02:13.660Z,101449.34
2024-05-09T08:04:42.635Z,101444.19
2024-05-09T08:07:11.356Z,101448.50
2024-05-09T08:09:40.080Z,101447.00
2024-05-09T08:12:09.615Z,101447.84
2024-05-09T08:14:37.958Z,101446.28
2024-05-09T08:17:06.880Z,101446.38
2024-05-09T08:19:36.444Z,101442.94
2024-05-09T08:22:09.381Z,101449.03
2024-05-09T08:24:37.043Z,101461.16
2024-05-09T08:27:06.309Z,101449.81
2024-05-09T08:29:34.240Z,101453.28
2024-05-09T08:32:02.767Z,101447.25
2024-05-09T08:34:31.313Z,101447.28
2024-05-09T08:37:01.769Z,101452.47
2024-05-09T08:39:33.906Z,101460.25
2024-05-09T08:42:01.668Z,101455.88
2024-05-09T08:44:29.488Z,101454.91
2024-05-09T08:46:57.593Z,101458.38
2024-05-09T08:49:26.322Z,101453.06
2024-05-09T08:51:55.080Z,101448.66
2024-05-09T08:54:23.405Z,101453.00
2024-05-09T08:56:51.539Z,101459.16
2024-05-09T08:59:26.166Z,101450.38
2024-05-09T09:01:53.492Z,101444.28
2024-05-09T09:04:22.262Z,101443.50
2024-05-09T09:06:50.988Z,101448.59
2024-05-09T09:09:20.914Z,101450.38
2024-05-09T09:11:49.033Z,101448.53
2024-05-09T09:14:17.558Z,101449.56
2024-05-09T09:16:46.493Z,101452.91
2024-05-09T09:19:15.069Z,101451.03
2024-05-09T09:21:43.653Z,101449.25
2024-05-09T09:24:11.711Z,101455.28
2024-05-09T09:26:39.592Z,101448.28
2024-05-09T09:29:07.740Z,101444.78
2024-05-09T09:31:37.400Z,101453.63
2024-05-09T09:34:09.434Z,101450.03
2024-05-09T09:36:37.051Z,101450.81
2024-05-09T09:39:03.885Z,101459.75
2024-05-09T09:41:32.314Z,101456.34
2024-05-09T09:44:00.327Z,101456.41
2024-05-09T09:46:29.020Z,101457.97
2024-05-09T09:48:57.102Z,101456.91
2024-05-09T09:51:26.007Z,101457.69
2024-05-09T09:53:54.545Z,101453.22
2024-05-09T09:56:22.947Z,101450.66
2024-05-09T09:58:53.710Z,101448.03
2024-05-09T10:01:21.570Z,101451.66
2024-05-09T10:03:49.514Z,101443.00
2024-05-09T10:06:17.316Z,101451.03
2024-05-09T10:08:46.681Z,101440.41
2024-05-09T10:11:14.911Z,101449.91
2024-05-09T10:13:43.367Z,101443.84
2024-05-09T10:16:12.701Z,101447.28
2024-05-09T10:18:40.830Z,101438.25
2024-05-09T10:21:21.138Z,101438.19
2024-05-09T10:24:03.335Z,101432.91
2024-05-09T10:26:35.442Z,101439.88
2024-05-09T10:29:17.063Z,101434.34
2024-05-09T10:31:45.110Z,101432.44
2024-05-09T10:34:22.891Z,101426.09
2024-05-09T10:36:56.418Z,101427.94
2024-05-09T10:39:26.952Z,101424.13
2024-05-09T10:41:54.707Z,101426.75
2024-05-09T10:44:22.317Z,101428.56
2024-05-09T10:46:50.770Z,101422.59
2024-05-09T10:49:19.671Z,101424.25
2024-05-09T10:51:48.223Z,101414.47
2024-05-09T10:54:16.429Z,101421.72
2024-05-09T10:56:44.143Z,101423.16
2024-05-09T10:59:11.577Z,101423.69
2024-05-09T11:01:38.720Z,101410.25
2024-05-09T11:04:07.318Z,101411.13
2024-05-09T11:06:38.249Z,101411.19
2024-05-09T11:09:06.222Z,101398.25
2024-05-09T11:11:34.372Z,101407.69
2024-05-09T11:14:01.825Z,101405.38
2024-05-09T11:16:30.398Z,101405.88
2024-05-09T11:18:59.020Z,101404.91
2024-05-09T11:21:27.342Z,101402.53
2024-05-09T11:23:55.018Z,101405.13
2024-05-09T11:26:25.175Z,101408.66
2024-05-09T11:28:53.139Z,101407.38
2024-05-09T11:31:21.886Z,101396.19
2024-05-09T11:33:50.396Z,101396.94
2024-05-09T11:36:18.106Z,101397.69
2024-05-09T11:38:46.141Z,101401.19
2024-05-09T11:41:20.184Z,101399.75
2024-05-09T11:43:48.305Z,101395.91
2024-05-09T11:46:16.620Z,101391.75
2024-05-09T11:48:47.420Z,101393.69
2024-05-09T11:51:15.629Z,101394.47
2024-05-09T11:53:44.151Z,101394.66
2024-05-09T11:56:12.210Z,101389.03
2024-05-09T11:58:41.937Z,101390.00
2024-05-09T12:01:10.445Z,101384.38
2024-05-09T12:03:38.729Z,101379.13
2024-05-09T12:06:07.088Z,101376.94
2024-05-09T12:08:35.377Z,101379.22
2024-05-09T12:11:03.305Z,101377.38
2024-05-09T12:13:31.733Z,101380.78
2024-05-09T12:16:01.010Z,101378.13
2024-05-09T12:18:28.762Z,101363.88
2024-05-09T12:20:56.655Z,101367.56
2024-05-09T12:23:24.596Z,101369.69
2024-05-09T12:25:52.641Z,101362.03
2024-05-09T12:28:20.829Z,101362.63
2024-05-09T12:30:49.920Z,101361.59
2024-05-09T12:33:20.047Z,101354.28
2024-05-09T12:35:50.724Z,101358.44
2024-05-09T12:38:18.606Z,101352.19
2024-05-09T12:40:46.331Z,101354.56
2024-05-09T12:43:14.784Z,101344.88
2024-05-09T12:45:43.202Z,101347.88
2024-05-09T12:48:12.481Z,101348.06
2024-05-09T12:50:42.064Z,101341.72
2024-05-09T12:53:10.632Z,101343.59
2024-05-09T12:55:45.043Z,101345.75
2024-05-09T12:58:23.061Z,101342.94
2024-05-09T13:00:52.622Z,101340.25
2024-05-09T13:03:21.044Z,101344.09
2024-05-09T13:05:49.722Z,101345.03
2024-05-09T13:08:17.839Z,101330.53
2024-05-09T13:10:46.009Z,101329.59
2024-05-09T13:13:14.371Z,101326.94
2024-05-09T13:15:42.252Z,101326.84
2024-05-09T13:18:10.826Z,101330.09
2024-05-09T13:20:39.101Z,101325.22
2024-05-09T13:23:08.200Z,101317.28
2024-05-09T13:25:39.631Z,101321.59
2024-05-09T13:28:08.473Z,101324.41
2024-05-09T13:30:40.832Z,101317.31
2024-05-09T13:33:12.871Z,101313.28
2024-05-09T13:35:47.610Z,101308.44
2024-05-09T13:38:21.562Z,101310.03
2024-05-09T13:40:51.778Z,101300.50
2024-05-09T13:43:21.301Z,101288.94
2024-05-09T13:45:49.460Z,101291.06
2024-05-09T13:48:18.050Z,101294.03
2024-05-09T13:50:46.409Z,101286.44
2024-05-09T13:53:14.727Z,101290.09
2024-05-09T13:55:42.749Z,101284.91
2024-05-09T13:58:10.904Z,101282.22
2024-05-09T14:00:46.334Z,101285.53
2024-05-09T14:03:18.673Z,101280.84
2024-05-09T14:05:51.292Z,101274.38
2024-05-09T14:08:20.568Z,101270.59
2024-05-09T14:10:49.715Z,101262.88
2024-05-09T14:13:18.879Z,101269.00
2024-05-09T14:15:47.669Z,101266.28
2024-05-09T14:18:15.551Z,101261.97
2024-05-09T14:20:44.076Z,101267.34
2024-05-09T14:23:15.127Z,101266.09
2024-05-09T14:25:44.060Z,101255.88
2024-05-09T14:28:13.665Z,101257.38
2024-05-09T14:30:43.005Z,101264.25
2024-05-09T14:33:11.279Z,101259.41
2024-05-09T14:35:39.717Z,101259.41
2024-05-09T14:38:09.102Z,101254.25
2024-05-09T14:40:44.057Z,101251.44
2024-05-09T14:43:13.459Z,101251.19
2024-05-09T14:45:41.765Z,101242.84
2024-05-09T14:48:08.952Z,101249.69
2024-05-09T14:50:39.999Z,101241.72
2024-05-09T14:53:12.180Z,101235.28
2024-05-09T14:55:41.930Z,101240.28
2024-05-09T14:58:11.858Z,101246.41
2024-05-09T15:00:47.762Z,101246.72
2024-05-09T15:03:22.126Z,101233.00
2024-05-09T15:05:51.670Z,101239.09
2024-05-09T15:08:21.231Z,101242.22
2024-05-09T15:10:50.429Z,101237.41
2024-05-09T15:13:19.589Z,101234.03
2024-05-09T15:15:47.589Z,101234.13
2024-05-09T15:18:15.705Z,101229.16
2024-05-09T15:20:44.999Z,101228.50
2024-05-09T15:23:13.434Z,101236.25
2024-05-09T15:25:41.702Z,101227.28
2024-05-09T15:28:09.928Z,101232.59
2024-05-09T15:30:39.614Z,101226.94
2024-05-09T15:33:08.797Z,101230.47
2024-05-09T15:35:41.213Z,101230.16
2024-05-09T15:38:08.674Z,101230.31
2024-05-09T15:40:40.025Z,101226.06
2024-05-09T15:43:11.350Z,101223.88
2024-05-09T15:45:40.767Z,101230.28
2024-05-09T15:48:09.591Z,101221.19
2024-05-09T15:50:41.210Z,101231.00
2024-05-09T15:53:10.483Z,101230.41
2024-05-09T15:55:39.406Z,101228.28
2024-05-09T15:58:07.633Z,101223.34
2024-05-09T16:00:39.798Z,101233.50
2024-05-09T16:03:11.284Z,101231.34
2024-05-09T16:05:40.755Z,101233.03
2024-05-09T16:08:08.704Z,101228.72
2024-05-09T16:10:43.191Z,101218.47
2024-05-09T16:13:12.554Z,101221.56
2024-05-09T16:15:41.003Z,101214.84
2024-05-09T16:18:09.186Z,101216.00
2024-05-09T16:20:40.450Z,101217.31
2024-05-09T16:23:10.305Z,101215.22
2024-05-09T16:25:38.519Z,101217.41
2024-05-09T16:28:10.458Z,101219.53
2024-05-09T16:30:42.073Z,101220.00
2024-05-09T16:33:11.816Z,101221.97
2024-05-09T16:35:40.196Z,101218.25
2024-05-09T16:38:10.708Z,101218.66
2024-05-09T16:40:40.954Z,101222.34
2024-05-09T16:43:32.396Z,101218.84
2024-05-09T16:46:00.776Z,101225.31
2024-05-09T16:48:28.882Z,101218.81
2024-05-09T16:50:57.349Z,101218.59
2024-05-09T16:53:25.806Z,101230.34
2024-05-09T16:55:53.670Z,101219.28
2024-05-09T16:58:22.286Z,101226.72
2024-05-09T17:00:51.221Z,101219.25
2024-05-09T17:03:20.678Z,101221.34
2024-05-09T17:05:49.041Z,101222.47
2024-05-09T17:08:20.476Z,101218.09
2024-05-09T17:10:49.909Z,101221.28
2024-05-09T17:13:19.342Z,101225.16
2024-05-09T17:15:47.610Z,101226.13
2024-05-09T17:18:15.365Z,101216.97
2024-05-09T17:20:43.439Z,101219.16
2024-05-09T17:23:14.727Z,101217.84
2024-05-09T17:25:42.478Z,101212.00
2024-05-09T17:28:10.688Z,101222.66
2024-05-09T17:30:40.363Z,101217.41
2024-05-09T17:33:10.296Z,101228.09
2024-05-09T17:35:39.103Z,101216.03
2024-05-09T17:38:10.374Z,101225.81
2024-05-09T17:43:14.289Z,101231.41
2024-05-09T17:45:42.630Z,101231.44
2024-05-09T17:48:11.412Z,101225.41
2024-05-09T17:50:41.036Z,101229.75
2024-05-09T17:53:10.240Z,101239.50
2024-05-09T17:55:38.311Z,101242.78
2024-05-09T17:58:10.156Z,101240.06
2024-05-09T18:00:41.360Z,101239.28
2024-05-09T18:03:11.953Z,101239.31
2024-05-09T18:05:42.327Z,101241.47
2024-05-09T18:08:11.516Z,101237.50
2024-05-09T18:10:41.074Z,101235.38
2024-05-09T18:13:09.652Z,101242.03
2024-05-09T18:15:38.202Z,101246.00
2024-05-09T18:18:07.090Z,101237.59
2024-05-09T18:20:42.958Z,101247.50
2024-05-09T18:23:15.630Z,101243.38
2024-05-09T18:25:44.784Z,101249.63
2024-05-09T18:28:12.891Z,101251.56
2024-05-09T18:30:40.938Z,101252.50
2024-05-09T18:33:11.536Z,101257.00
2024-05-09T18:35:40.821Z,101260.56
2024-05-09T18:38:08.958Z,101258.84
2024-05-09T18:40:38.422Z,101257.19
2024-05-09T18:43:08.955Z,101264.16
2024-05-09T18:45:38.823Z,101258.91
2024-05-09T18:48:12.474Z,101262.41
2024-05-09T18:50:41.407Z,101263.28
2024-05-09T18:53:10.342Z,101269.44
2024-05-09T18:55:39.183Z,101272.06
2024-05-09T18:58:07.187Z,101276.47
2024-05-09T19:00:38.778Z,101280.91
2024-05-09T19:03:11.594Z,101281.78
2024-05-09T19:05:43.527Z,101288.75
2024-05-09T19:08:12.770Z,101299.28
2024-05-09T19:10:40.837Z,101295.81
2024-05-09T19:13:29.927Z,101305.44
2024-05-09T19:15:58.346Z,101308.09
2024-05-09T19:18:27.184Z,101314.25
2024-05-09T19:20:55.529Z,101321.22
2024-05-09T19:23:23.983Z,101324.75
2024-05-09T19:25:51.651Z,101330.84
2024-05-09T19:28:20.031Z,101328.25
2024-05-09T19:30:48.183Z,101337.88
2024-05-09T19:33:16.160Z,101334.41
2024-05-09T19:35:44.313Z,101352.78
2024-05-09T19:38:12.897Z,101353.69
2024-05-09T19:40:40.764Z,101358.03
2024-05-09T19:43:08.686Z,101365.00
2024-05-09T19:45:37.026Z,101367.59
2024-05-09T19:48:06.021Z,101366.69
2024-05-09T19:50:41.463Z,101370.97
2024-05-09T19:53:12.125Z,101369.19
2024-05-09T19:55:42.528Z,101377.88
2024-05-09T19:58:11.920Z,101382.22
2024-05-09T20:00:42.611Z,101383.03
2024-05-09T20:03:40.956Z,101386.50
2024-05-09T20:06:09.442Z,101394.34
2024-05-09T20:08:39.257Z,101396.91
2024-05-09T20:11:06.828Z,101399.53
2024-05-09T20:13:34.773Z,101405.63
2024-05-09T20:16:02.804Z,101409.13
2024-05-09T20:18:31.096Z,101413.44
2024-05-09T20:21:00.550Z,101413.44
2024-05-09T20:23:29.453Z,101423.03
2024-05-09T20:25:57.597Z,101422.19
2024-05-09T20:28:26.550Z,101421.34
2024-05-09T20:30:55.204Z,101426.59
2024-05-09T20:33:23.800Z,101417.88
2024-05-09T20:36:01.621Z,101419.59
2024-05-09T20:38:30.536Z,101425.69
2024-05-09T20:40:58.371Z,101428.31
2024-05-09T20:43:28.947Z,101431.78
2024-05-09T20:45:57.001Z,101426.50
2024-05-09T20:48:24.905Z,101426.50
2024-05-09T20:50:53.357Z,101429.09
2024-05-09T20:53:21.411Z,101434.25
2024-05-09T20:55:49.861Z,101433.41
2024-05-09T20:58:18.253Z,101433.38
2024-05-09T21:00:46.936Z,101439.47
2024-05-09T21:03:16.880Z,101441.22
2024-05-09T21:05:45.574Z,101444.69
2024-05-09T21:08:13.672Z,101442.09
2024-05-09T21:10:44.918Z,101444.69
2024-05-09T21:13:13.409Z,101441.22
2024-05-09T21:15:41.349Z,101444.69
2024-05-09T21:18:09.610Z,101436.88
2024-05-09T21:20:37.782Z,101444.69
2024-05-09T21:23:06.426Z,101441.22
2024-05-09T21:25:35.177Z,101447.31
2024-05-09T21:28:03.948Z,101436.84
2024-05-09T21:30:41.008Z,101440.31
2024-05-09T21:33:12.454Z,101439.41
2024-05-09T21:35:42.841Z,101438.53
2024-05-09T21:38:11.206Z,101442.88
2024-05-09T21:40:39.515Z,101437.59
2024-05-09T21:43:07.187Z,101441.91
2024-05-09T21:45:35.255Z,101441.00
2024-05-09T21:48:09.160Z,101442.72
2024-05-09T21:50:41.029Z,101441.00
2024-05-09T21:53:13.890Z,101440.97
2024-05-09T21:56:03.717Z,101440.09
2024-05-09T21:58:32.395Z,101448.78
2024-05-09T22:01:00.791Z,101443.53
2024-05-09T22:03:29.291Z,101453.03
2024-05-09T22:05:57.329Z,101450.38
2024-05-09T22:08:25.960Z,101456.47
2024-05-09T22:10:54.521Z,101448.63
2024-05-09T22:13:22.135Z,101454.66
2024-05-09T22:15:50.854Z,101453.81
2024-05-09T22:18:19.237Z,101459.88
2024-05-09T22:20:47.618Z,101455.56
2024-05-09T22:23:16.067Z,101463.38
2024-05-09T22:25:47.756Z,101461.66
2024-05-09T22:28:16.360Z,101461.63
2024-05-09T22:30:46.230Z,101464.28
2024-05-09T22:33:15.154Z,101466.03
2024-05-09T22:35:43.476Z,101466.91
2024-05-09T22:38:11.416Z,101460.06
2024-05-09T22:40:47.170Z,101456.59
2024-05-09T22:43:21.343Z,101461.88
2024-05-09T22:45:51.299Z,101461.09
2024-05-09T22:48:20.216Z,101464.63
2024-05-09T22:50:48.710Z,101468.09
2024-05-09T22:53:16.337Z,101462.94
2024-05-09T22:55:44.766Z,101473.44
2024-05-09T22:58:12.631Z,101467.34
2024-05-09T23:00:40.783Z,101469.97
2024-05-09T23:03:09.058Z,101472.59
2024-05-09T23:05:37.569Z,101476.09
2024-05-09T23:08:08.994Z,101470.88
2024-05-09T23:10:38.230Z,101475.22
2024-05-09T23:13:09.802Z,101478.72
2024-05-09T23:15:40.679Z,101473.47
2024-05-09T23:18:09.287Z,101469.09
2024-05-09T23:20:39.903Z,101467.38
2024-05-09T23:23:10.038Z,101459.53
2024-05-09T23:25:39.506Z,101465.63
2024-05-09T23:28:08.606Z,101465.66
2024-05-09T23:30:39.638Z,101466.50
2024-05-09T23:33:12.680Z,101468.25
2024-05-09T23:35:42.160Z,101463.88
2024-05-09T23:38:10.062Z,101465.66
2024-05-09T23:40:40.497Z,101460.44
2024-05-09T23:43:11.641Z,101459.59
2024-05-09T23:45:40.718Z,101456.97
2024-05-09T23:48:10.731Z,101459.59
2024-05-09T23:50:40.211Z,101457.00
2024-05-09T23:53:09.529Z,101451.78
2024-05-09T23:55:38.554Z,101453.50
2024-05-09T23:58:07.500Z,101451.78
